Time;durP1;ratioP1;P1;durP2;ratioP2;P2;SDS_P1;SDS_P2;PMS_P1;PMS_P2;Temp;Humidity;BMP_temperature;BMP_pressure;BME280_temperature;BME280_humidity;BME280_pressure;Samples;Min_cycle;Max_cycle;Signal;HPM_P1;HPM_P2
2022/08/25 00:01:10;;;;;;;4.20;3.83;;;;;;;17.41;100.00;96454.72;5030963;28;101839;-69
2022/08/25 00:03:38;;;;;;;3.73;3.43;;;;;;;17.51;100.00;96449.19;5030771;28;105287;-69
2022/08/25 00:06:07;;;;;;;3.80;3.40;;;;;;;17.60;100.00;96456.31;5035086;28;103127;-69
2022/08/25 00:08:36;;;;;;;3.97;3.60;;;;;;;17.51;100.00;96447.31;5032640;28;102322;-69
2022/08/25 00:11:04;;;;;;;3.83;3.53;;;;;;;17.40;100.00;96440.50;5030882;28;105575;-69
2022/08/25 00:13:32;;;;;;;4.90;4.50;;;;;;;17.54;100.00;96440.56;5032081;27;101852;-69
2022/08/25 00:16:01;;;;;;;3.90;3.60;;;;;;;17.60;100.00;96431.31;5031241;27;102411;-69
2022/08/25 00:18:28;;;;;;;4.07;3.67;;;;;;;17.44;100.00;96432.66;5031478;28;102757;-69
2022/08/25 00:20:56;;;;;;;3.90;3.53;;;;;;;17.53;100.00;96431.69;5032479;28;101810;-69
2022/08/25 00:23:23;;;;;;;4.27;3.97;;;;;;;17.51;100.00;96431.19;5030708;28;106789;-69
2022/08/25 00:25:50;;;;;;;3.83;3.53;;;;;;;17.54;100.00;96432.50;5031559;28;102592;-69
2022/08/25 00:28:18;;;;;;;3.93;3.63;;;;;;;17.68;100.00;96430.63;5035623;28;101781;-69
2022/08/25 00:30:45;;;;;;;4.53;4.23;;;;;;;17.31;100.00;96431.44;5031473;28;102678;-69
2022/08/25 00:33:14;;;;;;;4.00;3.67;;;;;;;17.50;100.00;96445.69;5031664;28;101847;-69
2022/08/25 00:35:42;;;;;;;3.83;3.53;;;;;;;17.41;100.00;96435.91;5031779;28;104497;-69
2022/08/25 00:38:10;;;;;;;4.43;4.13;;;;;;;17.26;100.00;96441.47;5030102;28;106197;-69
2022/08/25 00:40:39;;;;;;;4.73;4.40;;;;;;;17.25;100.00;96429.13;5031658;28;101839;-69
2022/08/25 00:43:07;;;;;;;4.47;4.10;;;;;;;17.31;100.00;96444.09;5031777;28;102314;-69
2022/08/25 00:45:35;;;;;;;4.23;3.87;;;;;;;17.38;100.00;96439.16;5029961;28;105188;-69
2022/08/25 00:48:03;;;;;;;4.53;4.13;;;;;;;17.41;100.00;96443.97;5034053;28;101950;-69
2022/08/25 00:50:35;;;;;;;5.27;4.80;;;;;;;17.43;100.00;96439.91;5029658;28;105491;-69
2022/08/25 00:53:04;;;;;;;4.70;4.30;;;;;;;17.24;100.00;96433.72;5030318;28;102084;-69
2022/08/25 00:55:36;;;;;;;5.17;4.73;;;;;;;17.32;100.00;96443.81;5031175;28;102273;-69
2022/08/25 00:58:10;;;;;;;5.03;4.63;;;;;;;17.40;100.00;96439.69;5029883;28;105742;-69
2022/08/25 01:00:40;;;;;;;5.07;4.57;;;;;;;17.49;100.00;96448.72;5031204;28;101767;-69
2022/08/25 01:03:07;;;;;;;5.37;4.87;;;;;;;17.42;100.00;96440.19;5031531;28;103733;-69
2022/08/25 01:05:37;;;;;;;7.87;4.90;;;;;;;17.46;100.00;96439.34;5030756;28;103146;-69
2022/08/25 01:08:06;;;;;;;4.10;3.80;;;;;;;17.45;100.00;96431.56;5031569;28;102119;-69
2022/08/25 01:10:35;;;;;;;4.47;4.07;;;;;;;17.50;100.00;96434.16;5034372;27;101699;-69
2022/08/25 01:13:08;;;;;;;4.80;4.33;;;;;;;17.41;100.00;96431.34;5031389;28;101893;-69
2022/08/25 01:15:35;;;;;;;4.37;3.97;;;;;;;17.41;100.00;96430.53;5029926;28;105076;-69
2022/08/25 01:18:02;;;;;;;4.87;4.17;;;;;;;17.38;100.00;96431.09;5030563;28;102840;-69
2022/08/25 01:20:31;;;;;;;4.03;3.73;;;;;;;17.30;100.00;96431.75;5031373;28;101865;-69
2022/08/25 01:23:00;;;;;;;4.43;4.03;;;;;;;17.18;100.00;96418.75;5031348;28;101759;-69
2022/08/25 01:25:37;;;;;;;4.50;4.10;;;;;;;17.16;100.00;96420.91;5029874;27;102580;-69
2022/08/25 01:28:05;;;;;;;4.13;3.80;;;;;;;16.98;100.00;96413.66;5029918;28;101894;-69
2022/08/25 01:30:33;;;;;;;4.93;4.20;;;;;;;16.72;100.00;96412.38;5031171;27;102241;-69
2022/08/25 01:33:03;;;;;;;4.37;3.97;;;;;;;16.75;100.00;96421.75;5034024;28;103178;-69
2022/08/25 01:35:31;;;;;;;4.23;3.93;;;;;;;16.73;100.00;96410.50;5031256;28;102875;-69
2022/08/25 01:38:00;;;;;;;5.57;4.63;;;;;;;16.63;100.00;96416.78;5030433;28;102654;-69
2022/08/25 01:40:28;;;;;;;5.23;4.70;;;;;;;16.48;100.00;96417.00;5029416;28;101862;-69
2022/08/25 01:43:07;;;;;;;5.40;4.40;;;;;;;16.35;100.00;96419.53;5029663;28;105111;-69
2022/08/25 01:45:34;;;;;;;4.93;4.53;;;;;;;16.34;100.00;96423.28;5030455;28;102571;-69
2022/08/25 01:48:02;;;;;;;5.30;4.80;;;;;;;16.45;100.00;96422.13;5029453;28;101991;-69
2022/08/25 01:50:30;;;;;;;5.07;4.53;;;;;;;16.40;100.00;96425.66;5029624;28;103591;-69
2022/08/25 01:53:04;;;;;;;4.40;4.00;;;;;;;16.63;100.00;96434.81;5029961;28;103176;-69
2022/08/25 01:55:50;;;;;;;4.77;4.37;;;;;;;16.73;100.00;96432.00;5032795;28;101875;-69
2022/08/25 01:58:17;;;;;;;4.80;4.40;;;;;;;16.67;100.00;96419.72;5030205;28;102855;-69
2022/08/25 02:00:45;;;;;;;4.40;4.00;;;;;;;16.70;100.00;96421.81;5028824;28;102236;-69
2022/08/25 02:03:13;;;;;;;5.00;4.60;;;;;;;16.80;100.00;96425.19;5030643;28;102293;-69
2022/08/25 02:05:40;;;;;;;5.03;4.50;;;;;;;16.63;100.00;96418.69;5028537;28;106221;-69
2022/08/25 02:08:10;;;;;;;4.57;4.17;;;;;;;16.79;100.00;96420.88;5029235;28;101987;-69
2022/08/25 02:10:39;;;;;;;4.40;4.00;;;;;;;16.80;100.00;96429.75;5029364;28;105270;-69
2022/08/25 02:13:07;;;;;;;4.93;4.47;;;;;;;16.81;100.00;96425.97;5029884;28;102508;-69
2022/08/25 02:15:35;;;;;;;4.27;3.93;;;;;;;16.64;100.00;96426.47;5029974;28;101888;-69
2022/08/25 02:18:03;;;;;;;4.40;4.10;;;;;;;16.70;100.00;96430.69;5033496;28;102686;-69
2022/08/25 02:20:29;;;;;;;4.63;4.23;;;;;;;16.76;100.00;96423.34;5030348;28;101855;-69
2022/08/25 02:22:57;;;;;;;4.47;4.07;;;;;;;16.94;100.00;96425.28;5028765;28;104047;-69
2022/08/25 02:25:26;;;;;;;4.40;4.00;;;;;;;16.94;100.00;96422.59;5028374;28;104656;-69
2022/08/25 02:27:52;;;;;;;4.50;4.10;;;;;;;16.85;100.00;96421.63;5062801;27;101861;-69
2022/08/25 02:30:20;;;;;;;4.63;4.27;;;;;;;16.89;100.00;96423.44;5030407;28;102562;-69
2022/08/25 02:32:47;;;;;;;5.80;5.30;;;;;;;16.90;100.00;96426.94;5029503;27;102592;-69
2022/08/25 02:35:14;;;;;;;5.50;5.00;;;;;;;16.96;100.00;96423.09;5030122;28;101853;-69
2022/08/25 02:37:41;;;;;;;5.07;4.53;;;;;;;16.95;100.00;96422.28;5030689;27;102383;-69
2022/08/25 02:40:09;;;;;;;5.20;4.70;;;;;;;17.17;100.00;96417.13;5035096;28;102023;-69
2022/08/25 02:42:38;;;;;;;4.83;4.43;;;;;;;17.09;100.00;96414.31;5033681;28;102575;-69
2022/08/25 02:45:08;;;;;;;4.00;3.70;;;;;;;16.94;100.00;96411.84;5031672;28;106204;-69
2022/08/25 02:47:35;;;;;;;4.57;4.17;;;;;;;16.83;100.00;96416.53;5032454;28;101801;-69
2022/08/25 02:50:03;;;;;;;4.43;3.93;;;;;;;16.72;100.00;96407.03;5033750;28;104742;-69
2022/08/25 02:52:30;;;;;;;4.03;3.73;;;;;;;16.48;100.00;96400.88;5031708;28;104784;-69
2022/08/25 02:54:58;;;;;;;4.63;4.17;;;;;;;16.59;100.00;96404.25;5033080;28;101927;-69
2022/08/25 02:57:25;;;;;;;4.10;3.80;;;;;;;16.51;100.00;96405.66;5033242;28;102423;-69
2022/08/25 02:59:54;;;;;;;6.20;4.53;;;;;;;16.35;100.00;96406.13;5034702;28;106445;-69
2022/08/25 03:02:21;;;;;;;4.33;4.03;;;;;;;16.55;100.00;96412.06;5032039;28;103745;-69
2022/08/25 03:04:48;;;;;;;5.00;4.50;;;;;;;16.47;100.00;96411.91;5031570;28;103822;-69
2022/08/25 03:07:16;;;;;;;5.67;5.10;;;;;;;16.44;100.00;96410.59;5033249;28;101930;-69
2022/08/25 03:09:43;;;;;;;4.70;4.30;;;;;;;16.47;100.00;96410.00;5032058;28;103428;-69
2022/08/25 03:12:11;;;;;;;4.73;4.27;;;;;;;16.54;100.00;96410.47;5032394;28;102846;-69
2022/08/25 03:14:38;;;;;;;4.10;3.80;;;;;;;16.53;100.00;96408.88;5031867;28;101909;-69
2022/08/25 03:17:07;;;;;;;5.07;4.50;;;;;;;16.40;100.00;96408.78;5033243;28;102894;-69
2022/08/25 03:19:35;;;;;;;4.10;3.67;;;;;;;16.63;100.00;96411.41;5032346;28;102663;-69
2022/08/25 03:22:02;;;;;;;4.60;4.20;;;;;;;16.75;100.00;96408.31;5036779;28;101743;-69
2022/08/25 03:24:29;;;;;;;5.37;4.97;;;;;;;16.71;100.00;96410.78;5031137;28;105566;-69
2022/08/25 03:26:55;;;;;;;5.30;4.80;;;;;;;16.65;100.00;96413.81;5032999;28;101825;-69
2022/08/25 03:29:23;;;;;;;4.80;4.40;;;;;;;16.69;100.00;96412.16;5033189;28;102755;-70
2022/08/25 03:31:51;;;;;;;4.63;4.23;;;;;;;16.36;100.00;96407.72;5032258;28;102532;-69
2022/08/25 03:34:20;;;;;;;4.60;4.20;;;;;;;16.18;100.00;96405.78;5033106;28;101824;-69
2022/08/25 03:36:50;;;;;;;4.93;4.10;;;;;;;16.04;100.00;96419.06;5032635;28;102304;-70
2022/08/25 03:39:18;;;;;;;4.40;4.10;;;;;;;15.82;100.00;96412.56;5031018;28;105435;-70
2022/08/25 03:41:46;;;;;;;4.97;3.87;;;;;;;16.03;100.00;96413.97;5031503;28;101971;-70
2022/08/25 03:44:14;;;;;;;4.90;4.30;;;;;;;15.83;100.00;96409.59;5035767;28;101791;-70
2022/08/25 03:46:43;;;;;;;5.77;4.80;;;;;;;15.73;100.00;96408.88;5032461;27;101854;-69
2022/08/25 03:49:13;;;;;;;4.43;4.13;;;;;;;15.81;100.00;96411.75;5031193;28;105415;-70
2022/08/25 03:51:44;;;;;;;5.10;4.63;;;;;;;15.84;100.00;96400.47;5032194;28;102764;-69
2022/08/25 03:54:12;;;;;;;4.73;4.33;;;;;;;15.82;100.00;96401.84;5032691;28;101746;-69
2022/08/25 03:56:39;;;;;;;5.33;4.33;;;;;;;15.68;100.00;96398.19;5030810;28;105197;-69
2022/08/25 03:59:08;;;;;;;5.73;4.20;;;;;;;15.76;100.00;96400.28;5030348;28;105386;-70
2022/08/25 04:01:35;;;;;;;4.23;3.93;;;;;;;16.00;100.00;96401.91;5031236;28;101924;-70
2022/08/25 04:04:03;;;;;;;5.63;4.57;;;;;;;16.11;100.00;96410.66;5032529;28;102315;-69
2022/08/25 04:06:32;;;;;;;4.63;4.07;;;;;;;16.06;100.00;96398.09;5033700;28;105798;-69
2022/08/25 04:09:01;;;;;;;4.93;4.53;;;;;;;16.11;100.00;96399.91;5032152;28;103968;-70
2022/08/25 04:11:28;;;;;;;4.97;4.53;;;;;;;16.16;100.00;96398.00;5031675;28;102497;-69
2022/08/25 04:13:57;;;;;;;4.60;4.20;;;;;;;16.13;100.00;96401.25;5031034;28;101973;-69
2022/08/25 04:16:26;;;;;;;4.93;4.50;;;;;;;16.02;100.00;96401.66;5032318;28;102350;-69
2022/08/25 04:18:57;;;;;;;5.30;4.53;;;;;;;16.03;100.00;96406.69;5031718;28;102640;-69
2022/08/25 04:21:25;;;;;;;5.40;4.90;;;;;;;15.98;100.00;96400.59;5032434;28;101768;-69
2022/08/25 04:23:54;;;;;;;5.17;4.77;;;;;;;15.53;100.00;96398.34;5030482;28;105312;-70
2022/08/25 04:26:25;;;;;;;5.43;4.93;;;;;;;15.44;100.00;96400.03;5030256;28;105491;-70
2022/08/25 04:28:53;;;;;;;5.53;5.00;;;;;;;15.43;100.00;96404.56;5034270;28;101925;-70
2022/08/25 04:31:22;;;;;;;4.17;3.87;;;;;;;15.70;100.00;96409.47;5031454;27;102871;-70
2022/08/25 04:33:49;;;;;;;4.40;4.00;;;;;;;15.81;100.00;96405.59;5030397;28;101871;-70
2022/08/25 04:36:18;;;;;;;4.67;4.13;;;;;;;15.94;100.00;96399.56;5030659;28;105612;-70
2022/08/25 04:38:47;;;;;;;5.47;4.97;;;;;;;15.94;100.00;96402.25;5031480;28;102665;-70
2022/08/25 04:41:16;;;;;;;4.93;4.50;;;;;;;15.97;100.00;96399.00;5030607;28;102023;-70
2022/08/25 04:43:45;;;;;;;5.37;4.97;;;;;;;15.93;100.00;96409.50;5030156;28;105245;-70
2022/08/25 04:46:15;;;;;;;4.50;4.10;;;;;;;16.16;100.00;96402.56;5029716;28;106730;-70
2022/08/25 04:48:42;;;;;;;4.90;4.50;;;;;;;16.23;100.00;96411.88;5034131;28;102044;-70
2022/08/25 04:51:12;;;;;;;5.97;5.00;;;;;;;16.18;100.00;96405.78;5031540;28;102925;-70
2022/08/25 04:53:39;;;;;;;5.80;5.30;;;;;;;15.83;100.00;96408.78;5031255;28;101861;-70
2022/08/25 04:56:08;;;;;;;5.60;5.10;;;;;;;15.87;100.00;96407.16;5030282;28;105203;-70
2022/08/25 04:58:36;;;;;;;6.10;5.60;;;;;;;16.03;100.00;96416.66;5029805;28;105627;-70
2022/08/25 05:01:06;;;;;;;6.33;5.80;;;;;;;16.01;100.00;96410.75;5030220;27;101919;-70
2022/08/25 05:03:34;;;;;;;5.57;5.07;;;;;;;16.13;100.00;96414.66;5031763;28;101888;-70
2022/08/25 05:06:01;;;;;;;7.10;5.83;;;;;;;16.03;100.00;96416.66;5029855;28;105996;-70
2022/08/25 05:08:28;;;;;;;7.57;6.43;;;;;;;16.15;100.00;96419.75;5031928;28;101730;-69
2022/08/25 05:10:56;;;;;;;7.93;5.67;;;;;;;16.34;100.00;96415.22;5033142;28;105390;-70
2022/08/25 05:13:23;;;;;;;6.83;5.20;;;;;;;16.49;100.00;96401.66;5031803;28;101881;-70
2022/08/25 05:15:59;;;;;;;7.00;5.60;;;;;;;16.60;100.00;96403.16;5031562;28;102294;-70
2022/08/25 05:18:57;;;;;;;5.90;5.30;;;;;;;16.50;100.00;96414.00;5029836;28;105655;-70
2022/08/25 05:21:27;;;;;;;7.37;5.73;;;;;;;16.69;100.00;96409.47;5030201;28;101824;-70
2022/08/25 05:23:56;;;;;;;7.80;6.40;;;;;;;16.50;100.00;96414.00;5031461;27;102279;-70
2022/08/25 05:26:30;;;;;;;8.90;6.80;;;;;;;16.11;100.00;96410.66;5030753;28;102635;-68
2022/08/25 05:28:59;;;;;;;7.37;6.20;;;;;;;16.39;100.00;96401.78;5031508;28;101813;-69
2022/08/25 05:31:28;;;;;;;7.20;6.10;;;;;;;16.40;100.00;96401.50;5031481;28;102494;-70
2022/08/25 05:33:57;;;;;;;7.50;6.80;;;;;;;16.35;100.00;96406.91;5034101;28;102718;-70
2022/08/25 05:36:38;;;;;;;11.67;7.50;;;;;;;16.50;100.00;96405.94;5030831;28;104021;-70
2022/08/25 05:39:04;;;;;;;8.13;6.20;;;;;;;16.81;100.00;96399.13;5029368;28;105743;-70
2022/08/25 05:41:32;;;;;;;12.53;6.63;;;;;;;17.08;100.00;96397.41;5029851;28;101944;-70
2022/08/25 05:43:59;;;;;;;12.67;7.30;;;;;;;16.99;100.00;96398.31;5031187;27;101766;-70
2022/08/25 05:46:27;;;;;;;10.17;7.00;;;;;;;16.99;100.00;96388.38;5044827;27;102045;-70
2022/08/25 05:49:00;;;;;;;10.03;6.70;;;;;;;16.95;100.00;96391.94;5048062;27;101855;-70
2022/08/25 05:51:27;;;;;;;11.10;6.70;;;;;;;17.09;100.00;96390.13;5051342;27;102516;-70
2022/08/25 05:53:55;;;;;;;8.60;6.30;;;;;;;16.88;100.00;96389.63;5050735;27;102660;-70
2022/08/25 05:56:28;;;;;;;7.07;6.37;;;;;;;17.03;100.00;96385.91;5044944;27;103141;-70
2022/08/25 05:58:55;;;;;;;7.50;6.70;;;;;;;17.29;100.00;96387.16;5030479;28;102610;-71
2022/08/25 06:04:11;;;;;;;6.70;6.10;;;;;;;17.61;100.00;96384.50;5031180;28;102730;-71
2022/08/25 06:06:44;;;;;;;7.40;6.60;;;;;;;17.47;100.00;96378.28;5049957;27;103097;-64
2022/08/25 06:09:12;;;;;;;8.00;7.20;;;;;;;17.64;100.00;96373.97;5032511;27;102471;-64
2022/08/25 06:11:40;;;;;;;7.77;7.00;;;;;;;17.75;100.00;96375.38;5041617;27;102410;-64
2022/08/25 06:14:08;;;;;;;6.97;6.27;;;;;;;17.95;100.00;96375.03;5030034;28;104827;-64
2022/08/25 06:16:43;;;;;;;10.23;6.73;;;;;;;17.74;100.00;96379.16;5030517;28;101883;-64
2022/08/25 06:19:28;;;;;;;7.80;7.07;;;;;;;17.93;100.00;96373.72;5036396;27;102509;-64
2022/08/25 06:21:56;;;;;;;9.20;7.50;;;;;;;18.00;100.00;96377.63;5041487;27;103479;-63
2022/08/25 06:24:24;;;;;;;7.77;7.17;;;;;;;18.12;100.00;96374.44;5030641;28;102876;-63
2022/08/25 06:27:07;;;;;;;9.07;7.47;;;;;;;18.37;100.00;96376.69;5029968;27;102521;-64
2022/08/25 06:29:34;;;;;;;8.80;8.00;;;;;;;18.64;100.00;96379.38;5030646;28;101703;-64
2022/08/25 06:32:01;;;;;;;9.33;8.27;;;;;;;18.67;100.00;96376.06;5029268;28;105292;-64
2022/08/25 06:34:29;;;;;;;9.50;8.50;;;;;;;18.90;100.00;96370.44;5028379;28;105718;-67
2022/08/25 06:37:01;;;;;;;11.07;9.97;;;;;;;18.30;100.00;96368.16;5030252;28;101883;-64
2022/08/25 06:39:28;;;;;;;11.40;10.30;;;;;;;18.35;100.00;96370.78;5029785;28;102758;-64
2022/08/25 06:41:57;;;;;;;11.70;10.50;;;;;;;18.50;100.00;96367.78;5048463;27;103939;-64
2022/08/25 06:44:26;;;;;;;11.90;10.70;;;;;;;18.42;100.00;96369.28;5036168;27;105733;-64
2022/08/25 06:46:54;;;;;;;10.30;9.30;;;;;;;18.80;100.00;96372.56;5029020;28;102603;-64
2022/08/25 06:49:39;;;;;;;10.80;9.50;;;;;;;19.27;100.00;96372.03;5030327;28;101722;-64
2022/08/25 06:52:06;;;;;;;10.97;9.23;;;;;;;19.30;100.00;96366.84;5028884;28;105491;-66
2022/08/25 06:54:33;;;;;;;10.43;9.23;;;;;;;19.43;100.00;96367.88;5043341;27;102839;-64
2022/08/25 06:57:40;;;;;;;8.20;7.50;;;;;;;19.64;100.00;96360.91;5049041;27;102058;-65
2022/08/25 07:00:09;;;;;;;8.40;7.60;;;;;;;19.88;100.00;96361.34;5048534;27;105594;-65
2022/08/25 07:02:37;;;;;;;8.60;7.87;;;;;;;19.77;100.00;96360.00;5051022;27;103226;-63
2022/08/25 07:05:07;;;;;;;8.67;7.97;;;;;;;19.79;100.00;96357.81;5031685;27;105177;-64
2022/08/25 07:07:34;;;;;;;8.97;7.67;;;;;;;19.70;100.00;96365.88;5047306;27;105553;-63
2022/08/25 07:10:01;;;;;;;8.57;7.80;;;;;;;19.26;100.00;96370.47;5042208;27;102440;-63
2022/08/25 07:12:29;;;;;;;8.50;7.80;;;;;;;19.66;100.00;96361.38;5038074;27;105267;-63
2022/08/25 07:14:56;;;;;;;7.33;6.63;;;;;;;19.54;100.00;96364.66;5029493;27;102710;-63
2022/08/25 07:17:45;;;;;;;8.50;7.70;;;;;;;19.38;100.00;96358.03;5029968;28;101892;-63
2022/08/25 07:20:14;;;;;;;8.40;7.30;;;;;;;19.23;100.00;96368.38;5029864;28;104619;-63
2022/08/25 07:22:42;;;;;;;7.60;6.90;;;;;;;19.70;100.00;96363.16;5027857;28;105452;-63
2022/08/25 07:25:10;;;;;;;8.03;7.33;;;;;;;20.05;100.00;96366.84;5035916;27;101967;-63
2022/08/25 07:27:39;;;;;;;8.17;7.47;;;;;;;20.18;100.00;96368.69;5032884;28;102750;-64
2022/08/25 07:30:08;;;;;;;8.10;7.40;;;;;;;20.51;100.00;96364.53;5032013;28;101949;-64
2022/08/25 07:32:36;;;;;;;8.27;7.57;;;;;;;20.78;100.00;96359.69;5031848;28;106843;-64
2022/08/25 07:35:14;;;;;;;8.03;7.33;;;;;;;20.71;100.00;96361.25;5031133;28;105319;-64
2022/08/25 07:37:44;;;;;;;6.83;6.13;;;;;;;21.12;100.00;96358.94;5033252;27;101667;-68
2022/08/25 07:40:16;;;;;;;7.37;6.67;;;;;;;21.21;100.00;96349.72;5033193;28;102335;-62
2022/08/25 07:42:44;;;;;;;8.30;6.77;;;;;;;20.73;100.00;96350.91;5049979;27;102726;-62
2022/08/25 07:45:13;;;;;;;7.77;6.83;;;;;;;20.51;100.00;96348.31;5033039;28;102114;-65
2022/08/25 07:47:41;;;;;;;7.23;6.60;;;;;;;21.06;100.00;96347.50;5034473;28;105610;-62
2022/08/25 07:50:23;;;;;;;8.10;7.33;;;;;;;21.24;100.00;96345.56;5031591;28;102077;-62
2022/08/25 07:52:53;;;;;;;7.47;6.87;;;;;;;21.50;100.00;96349.88;5043310;27;102580;-62
2022/08/25 07:55:35;;;;;;;7.23;6.67;;;;;;;21.86;100.00;96352.22;5052353;27;102610;-60
2022/08/25 07:58:03;;;;;;;7.37;6.77;;;;;;;21.09;100.00;96354.19;5047998;27;101914;-63
2022/08/25 08:00:32;;;;;;;7.50;6.73;;;;;;;20.86;100.00;96358.88;5031094;27;105059;-62
2022/08/25 08:03:00;;;;;;;7.27;6.57;;;;;;;20.89;100.00;96360.19;5030771;28;104048;-63
2022/08/25 08:05:28;;;;;;;6.60;6.10;;;;;;;21.37;100.00;96356.22;5031338;28;101822;-62
2022/08/25 08:07:57;;;;;;;6.20;5.80;;;;;;;22.20;100.00;96361.06;5039586;27;102151;-61
2022/08/25 08:10:25;;;;;;;6.10;5.60;;;;;;;22.11;100.00;96348.63;5035365;28;103023;-62
2022/08/25 08:12:53;;;;;;;6.57;5.40;;;;;;;22.46;100.00;96350.91;5052772;27;101673;-61
2022/08/25 08:15:23;;;;;;;7.27;5.10;;;;;;;22.69;100.00;96349.53;5044839;27;105569;-62
2022/08/25 08:17:51;;;;;;;5.67;5.17;;;;;;;23.08;100.00;96349.13;5031037;28;101880;-65
2022/08/25 08:20:21;;;;;;;6.07;5.50;;;;;;;23.28;100.00;96351.03;5031176;28;104943;-63
2022/08/25 08:22:49;;;;;;;5.47;5.07;;;;;;;22.98;100.00;96348.69;5064268;27;105327;-62
2022/08/25 08:25:36;;;;;;;6.40;5.83;;;;;;;23.31;100.00;96349.59;5031014;28;102029;-62
2022/08/25 08:28:03;;;;;;;6.00;5.50;;;;;;;22.01;100.00;96354.44;5030956;28;105294;-62
2022/08/25 08:30:30;;;;;;;6.17;5.57;;;;;;;22.60;100.00;96350.69;5030294;28;105381;-62
2022/08/25 08:32:57;;;;;;;5.43;4.87;;;;;;;23.14;100.00;96350.50;5034304;28;101890;-62
2022/08/25 08:35:28;;;;;;;6.30;5.80;;;;;;;23.19;100.00;96354.97;5029040;27;105765;-62
2022/08/25 08:37:55;;;;;;;7.53;5.37;;;;;;;23.12;100.00;96351.97;5030664;28;101957;-62
2022/08/25 08:40:22;;;;;;;5.60;5.20;;;;;;;23.15;100.00;96354.03;5032150;28;102311;-62
2022/08/25 08:43:04;;;;;;;5.43;5.00;;;;;;;23.51;100.00;96348.78;5030173;28;106704;-61
2022/08/25 08:46:09;;;;;;;6.10;5.60;;;;;;;23.14;100.00;96339.66;5033634;27;101901;-63
2022/08/25 08:48:56;;;;;;;6.00;5.50;;;;;;;23.50;100.00;96339.06;5050794;27;105180;-62
2022/08/25 08:51:27;;;;;;;5.73;5.33;;;;;;;23.91;100.00;96328.13;5031813;27;103196;-62
2022/08/25 08:53:57;;;;;;;5.97;5.47;;;;;;;24.26;100.00;96337.50;5044367;27;101875;-62
2022/08/25 08:56:32;;;;;;;5.07;4.57;;;;;;;24.11;100.00;96332.69;5055054;27;102428;-63
2022/08/25 08:59:04;;;;;;;5.47;4.97;;;;;;;24.55;100.00;96334.53;5050030;27;101976;-63
2022/08/25 09:01:35;;;;;;;4.20;3.90;;;;;;;24.83;100.00;96332.75;5030423;27;106417;-63
2022/08/25 09:04:09;;;;;;;5.67;5.17;;;;;;;23.67;100.00;96323.41;5031410;28;102700;-62
2022/08/25 09:07:14;;;;;;;5.30;4.90;;;;;;;23.87;100.00;96322.53;5032011;27;101764;-63
2022/08/25 09:09:43;;;;;;;5.23;4.83;;;;;;;24.82;100.00;96320.28;5030411;28;105543;-64
2022/08/25 09:12:13;;;;;;;5.70;5.30;;;;;;;23.92;100.00;96321.59;5030983;28;102555;-63
2022/08/25 09:15:04;;;;;;;5.30;4.90;;;;;;;24.59;100.00;96317.25;5030497;28;101787;-63
2022/08/25 09:17:51;;;;;;;5.43;4.97;;;;;;;24.80;100.00;96319.84;5032937;28;105242;-63
2022/08/25 09:20:40;;;;;;;5.07;4.60;;;;;;;24.99;100.00;96317.31;5030255;28;102095;-63
2022/08/25 09:23:20;;;;;;;4.87;4.40;;;;;;;25.29;100.00;96321.34;5031623;28;102287;-62
2022/08/25 09:25:58;;;;;;;5.27;4.87;;;;;;;25.05;100.00;96315.94;5046339;27;105796;-63
2022/08/25 09:28:31;;;;;;;5.00;4.50;;;;;;;24.80;100.00;96326.06;5050321;27;101899;-63
2022/08/25 09:31:03;;;;;;;5.47;4.97;;;;;;;24.55;100.00;96310.88;5051823;27;102287;-63
2022/08/25 09:33:32;;;;;;;4.80;4.47;;;;;;;24.82;100.00;96317.56;5049728;27;105712;-63
2022/08/25 09:36:07;;;;;;;5.60;4.90;;;;;;;23.30;100.00;96310.81;5051428;27;101864;-63
2022/08/25 09:38:34;;;;;;;8.20;4.90;;;;;;;24.25;100.00;96297.84;5050197;27;104992;-63
2022/08/25 09:41:03;;;;;;;4.90;4.50;;;;;;;24.84;100.00;96302.47;5052822;27;105955;-63
2022/08/25 09:43:33;;;;;;;4.87;4.47;;;;;;;24.34;100.00;96296.59;5036669;27;103572;-64
2022/08/25 09:46:30;;;;;;;5.73;4.37;;;;;;;24.08;100.00;96295.34;5030454;28;102617;-63
2022/08/25 09:49:32;;;;;;;5.33;4.10;;;;;;;24.74;100.00;96296.72;5031364;28;101847;-63
2022/08/25 09:52:19;;;;;;;3.83;3.53;;;;;;;25.74;100.00;96295.41;5039286;27;102565;-63
2022/08/25 09:54:46;;;;;;;3.80;3.50;;;;;;;26.17;100.00;96297.31;5030366;27;102543;-63
2022/08/25 09:57:32;;;;;;;3.60;3.30;;;;;;;26.43;100.00;96300.31;5063400;27;101956;-63
2022/08/25 10:00:11;;;;;;;3.30;3.10;;;;;;;27.09;100.00;96309.25;5029077;28;105166;-63
2022/08/25 10:02:41;;;;;;;3.43;3.13;;;;;;;27.12;100.00;96303.06;5030576;28;103076;-63
2022/08/25 10:05:24;;;;;;;3.10;2.90;;;;;;;27.34;100.00;96302.41;5035560;27;103240;-63
2022/08/25 10:07:55;;;;;;;3.20;2.90;;;;;;;26.81;100.00;96297.72;5050801;27;103011;-64
2022/08/25 10:10:28;;;;;;;3.00;2.80;;;;;;;27.33;100.00;96301.63;5049765;27;102273;-63
2022/08/25 10:12:58;;;;;;;3.37;3.07;;;;;;;27.32;100.00;96296.50;5051116;27;102904;-63
2022/08/25 10:15:32;;;;;;;3.77;2.83;;;;;;;27.49;100.00;96294.16;5050354;27;103018;-63
2022/08/25 10:18:22;;;;;;;2.60;2.50;;;;;;;27.46;100.00;96283.16;5050961;27;101975;-63
2022/08/25 10:21:14;;;;;;;2.97;2.57;;;;;;;27.61;100.00;96290.47;5050813;27;102833;-63
2022/08/25 10:23:45;;;;;;;3.23;2.60;;;;;;;27.09;100.00;96280.00;5035629;27;102683;-63
2022/08/25 10:26:51;;;;;;;2.57;2.37;;;;;;;27.82;100.00;96279.97;5048445;27;101739;-63
2022/08/25 10:29:31;;;;;;;2.60;2.40;;;;;;;28.08;100.00;96277.31;5033562;28;102861;-63
2022/08/25 10:32:05;;;;;;;3.10;2.60;;;;;;;28.22;100.00;96275.59;5029140;28;101933;-63
2022/08/25 10:34:49;;;;;;;2.70;2.50;;;;;;;28.73;100.00;96270.59;5030746;28;102313;-63
2022/08/25 10:37:55;;;;;;;3.00;2.30;;;;;;;28.60;100.00;96272.72;5029799;28;103127;-63
2022/08/25 10:40:28;;;;;;;2.40;2.30;;;;;;;28.35;100.00;96265.28;5028982;28;101823;-63
2022/08/25 10:43:06;;;;;;;2.90;2.20;;;;;;;28.39;100.00;96266.16;5063010;27;104895;-63
2022/08/25 10:45:57;;;;;;;2.13;2.03;;;;;;;28.48;91.56;96269.41;5030005;27;102006;-63
2022/08/25 10:51:59;;;;;;;2.23;2.07;;;;;;;28.38;94.34;96264.59;5030222;28;101939;-63
2022/08/25 10:54:39;;;;;;;2.67;2.47;;;;;;;28.53;99.88;96263.63;5031521;28;105469;-63
2022/08/25 10:57:32;;;;;;;2.33;2.10;;;;;;;28.92;90.93;96256.75;5030320;28;102258;-63
2022/08/25 11:00:06;;;;;;;2.60;2.40;;;;;;;28.99;99.29;96251.44;5031533;27;102561;-63
2022/08/25 11:03:19;;;;;;;3.97;2.35;;;;;;;29.21;91.09;96248.56;5033927;28;101686;-63
2022/08/25 11:06:23;;;;;;;2.60;2.50;;;;;;;29.58;98.07;96251.41;4954718;28;104158;-63
2022/08/25 11:08:57;;;;;;;2.43;2.23;;;;;;;29.94;84.78;96247.84;5022503;27;103235;-63
2022/08/25 11:11:30;;;;;;;2.78;2.58;;;;;;;29.88;83.33;96254.84;5032202;28;102212;-63
2022/08/25 11:14:01;;;;;;;2.55;2.35;;;;;;;29.89;81.31;96250.94;5033716;28;101719;-63
2022/08/25 11:16:44;;;;;;;2.57;2.37;;;;;;;29.55;88.12;96244.72;5032984;28;103130;-63
2022/08/25 11:19:42;;;;;;;2.63;2.13;;;;;;;29.52;92.27;96237.22;5036928;28;101660;-63
2022/08/25 11:22:16;;;;;;;2.53;2.30;;;;;;;30.07;81.45;96235.44;5031197;28;105452;-63
2022/08/25 11:24:56;;;;;;;2.33;2.22;;;;;;;30.34;81.52;96239.63;5032050;28;101904;-63
2022/08/25 11:27:37;;;;;;;2.40;2.20;;;;;;;30.63;74.17;96239.44;5034014;27;102367;-63
2022/08/25 11:30:08;;;;;;;3.95;2.38;;;;;;;30.62;75.64;96231.59;5051691;27;105579;-63
2022/08/25 11:32:36;;;;;;;2.60;2.40;;;;;;;30.87;66.43;96241.59;5052219;27;101869;-63
2022/08/25 11:35:07;;;;;;;4.50;2.38;;;;;;;31.01;70.55;96236.16;5038010;27;102338;-63
2022/08/25 11:37:39;;;;;;;2.97;2.22;;;;;;;30.82;77.21;96232.91;5032706;28;103203;-63
2022/08/25 11:40:32;;;;;;;2.40;2.20;;;;;;;30.76;82.59;96218.78;5042882;27;101817;-62
2022/08/25 11:43:09;;;;;;;2.47;2.33;;;;;;;30.94;73.36;96225.13;5051541;27;104387;-63
2022/08/25 11:46:14;;;;;;;2.10;2.00;;;;;;;31.11;75.97;96215.41;5053252;27;101766;-62